Time;durP1;ratioP1;P1;durP2;ratioP2;P2;SDS_P1;SDS_P2;PMS_P1;PMS_P2;Temp;Humidity;BMP_temperature;BMP_pressure;BME280_temperature;BME280_humidity;BME280_pressure;Samples;Min_cycle;Max_cycle;Signal;HPM_P1;HPM_P2
2022/04/05 00:01:41;;;;;;;6.95;5.10;;;;;;;;;;5000381;28;20022;-80
2022/04/05 00:04:06;;;;;;;7.28;4.65;;;;;;;;;;5006323;28;20022;-80
2022/04/05 00:06:31;;;;;;;9.95;4.75;;;;;;;;;;5013048;28;20030;-80
2022/04/05 00:08:57;;;;;;;9.82;5.30;;;;;;;;;;5005115;28;20030;-80
2022/04/05 00:11:22;;;;;;;8.52;5.07;;;;;;;;;;5012004;28;20128;-80
2022/04/05 00:13:48;;;;;;;6.70;4.75;;;;;;;;;;5017079;28;20053;-80
2022/04/05 00:16:13;;;;;;;7.57;4.53;;;;;;;;;;5015841;28;20021;-82
2022/04/05 00:18:39;;;;;;;7.47;5.18;;;;;;;;;;5015746;28;20034;-80
2022/04/05 00:21:04;;;;;;;6.07;4.15;;;;;;;;;;5019249;28;20058;-80
2022/04/05 00:23:30;;;;;;;6.75;4.55;;;;;;;;;;5023059;28;20094;-80
2022/04/05 00:25:56;;;;;;;7.28;5.15;;;;;;;;;;4996200;28;20432;-81
2022/04/05 00:28:21;;;;;;;6.72;4.43;;;;;;;;;;5027031;28;20048;-80
2022/04/05 00:30:46;;;;;;;5.95;4.00;;;;;;;;;;5035973;28;20025;-81
2022/04/05 00:33:12;;;;;;;4.45;3.35;;;;;;;;;;5018034;28;20116;-81
2022/04/05 00:35:38;;;;;;;6.72;4.70;;;;;;;;;;5035154;28;20025;-81
2022/04/05 00:38:03;;;;;;;8.55;4.63;;;;;;;;;;5035758;28;20052;-80
2022/04/05 00:40:30;;;;;;;5.53;4.28;;;;;;;;;;5004280;28;20025;-81
2022/04/05 00:42:55;;;;;;;6.47;4.38;;;;;;;;;;5016589;28;20492;-81
2022/04/05 00:45:21;;;;;;;6.63;4.85;;;;;;;;;;5015873;28;20033;-81
2022/04/05 00:47:49;;;;;;;7.72;4.65;;;;;;;;;;5011284;28;20069;-81
2022/04/05 00:50:19;;;;;;;5.35;4.10;;;;;;;;;;5033209;28;20025;-81
2022/04/05 00:52:45;;;;;;;5.65;4.25;;;;;;;;;;5024717;28;20025;-80
2022/04/05 00:55:11;;;;;;;6.00;4.55;;;;;;;;;;5014929;28;20373;-81
2022/04/05 00:57:37;;;;;;;7.35;4.65;;;;;;;;;;4998529;28;20034;-80
2022/04/05 01:00:07;;;;;;;6.38;4.22;;;;;;;;;;5016005;28;20081;-81
2022/04/05 01:02:36;;;;;;;6.80;4.90;;;;;;;;;;4998002;28;20045;-81
2022/04/05 01:05:02;;;;;;;6.65;4.78;;;;;;;;;;4995559;28;20021;-80
2022/04/05 01:07:30;;;;;;;6.70;4.45;;;;;;;;;;5021116;28;20017;-80
2022/04/05 01:09:56;;;;;;;5.75;4.50;;;;;;;;;;4992115;28;20087;-80
2022/04/05 01:12:22;;;;;;;8.05;5.10;;;;;;;;;;5022978;28;20025;-80
2022/04/05 01:14:49;;;;;;;10.48;4.43;;;;;;;;;;4997306;28;20018;-80
2022/04/05 01:17:16;;;;;;;7.97;4.82;;;;;;;;;;5015559;28;20018;-80
2022/04/05 01:19:41;;;;;;;7.47;4.40;;;;;;;;;;5015426;28;20044;-80
2022/04/05 01:22:07;;;;;;;7.80;5.00;;;;;;;;;;5018905;28;20030;-80
2022/04/05 01:24:33;;;;;;;5.55;4.32;;;;;;;;;;5032260;28;20068;-80
2022/04/05 01:27:01;;;;;;;5.78;4.60;;;;;;;;;;4999426;28;20128;-80
2022/04/05 01:29:27;;;;;;;6.38;4.40;;;;;;;;;;5023856;28;20025;-80
2022/04/05 01:31:54;;;;;;;6.53;4.55;;;;;;;;;;5023936;28;20035;-80
2022/04/05 01:34:23;;;;;;;7.15;4.45;;;;;;;;;;5018607;28;20017;-80
2022/04/05 01:36:50;;;;;;;8.15;4.55;;;;;;;;;;5015217;28;20025;-80
2022/04/05 01:39:16;;;;;;;5.97;4.10;;;;;;;;;;5023815;28;20025;-81
2022/04/05 01:41:42;;;;;;;8.65;4.10;;;;;;;;;;4997724;28;20037;-80
2022/04/05 01:44:09;;;;;;;6.78;4.70;;;;;;;;;;5001929;28;20030;-81
2022/04/05 01:46:34;;;;;;;9.70;5.00;;;;;;;;;;5029951;28;20080;-81
2022/04/05 01:49:00;;;;;;;7.03;4.65;;;;;;;;;;5025907;28;20021;-82
2022/04/05 01:51:26;;;;;;;7.05;4.40;;;;;;;;;;4995392;28;20032;-81
2022/04/05 01:53:51;;;;;;;5.95;4.30;;;;;;;;;;5021465;28;20056;-79
2022/04/05 01:56:16;;;;;;;9.88;4.63;;;;;;;;;;5014428;28;20100;-81
2022/04/05 01:58:42;;;;;;;8.35;4.57;;;;;;;;;;5020891;28;20057;-81
2022/04/05 02:01:07;;;;;;;5.57;3.80;;;;;;;;;;5014176;28;20081;-81
2022/04/05 02:03:33;;;;;;;7.93;4.60;;;;;;;;;;4996237;28;20034;-84
2022/04/05 02:05:59;;;;;;;6.20;4.80;;;;;;;;;;4999818;28;20029;-83
2022/04/05 02:08:25;;;;;;;8.23;5.15;;;;;;;;;;4998288;28;20194;-83
2022/04/05 02:10:50;;;;;;;9.88;5.00;;;;;;;;;;5017813;28;20037;-82
2022/04/05 02:13:16;;;;;;;7.50;4.80;;;;;;;;;;5010013;28;20384;-83
2022/04/05 02:15:41;;;;;;;7.28;5.03;;;;;;;;;;5033116;28;20025;-83
2022/04/05 02:18:07;;;;;;;9.65;5.50;;;;;;;;;;5020606;28;20029;-83
2022/04/05 02:20:33;;;;;;;9.75;5.50;;;;;;;;;;5023552;28;20096;-81
2022/04/05 02:22:59;;;;;;;8.32;5.00;;;;;;;;;;5023497;28;20037;-83
2022/04/05 02:25:26;;;;;;;9.82;5.60;;;;;;;;;;5016407;28;20029;-83
2022/04/05 02:27:51;;;;;;;9.85;5.15;;;;;;;;;;5013795;28;20069;-83
2022/04/05 02:30:17;;;;;;;6.55;4.60;;;;;;;;;;5019152;28;20021;-82
2022/04/05 02:32:42;;;;;;;6.50;4.85;;;;;;;;;;5021178;28;20036;-82
2022/04/05 02:35:08;;;;;;;8.35;4.80;;;;;;;;;;5021793;28;20093;-82
2022/04/05 02:37:34;;;;;;;9.45;5.10;;;;;;;;;;5028976;28;20022;-82
2022/04/05 02:39:59;;;;;;;6.35;5.07;;;;;;;;;;5015571;28;20081;-85
2022/04/05 02:42:25;;;;;;;7.85;5.05;;;;;;;;;;5021522;28;20537;-85
2022/04/05 02:44:50;;;;;;;9.48;5.78;;;;;;;;;;5019234;28;20048;-84
2022/04/05 02:47:16;;;;;;;9.82;5.50;;;;;;;;;;5003586;28;20026;-82
2022/04/05 02:49:41;;;;;;;9.15;6.15;;;;;;;;;;5004073;28;20026;-83
2022/04/05 02:52:07;;;;;;;7.43;5.03;;;;;;;;;;5002816;28;20476;-82
2022/04/05 02:54:32;;;;;;;7.38;4.95;;;;;;;;;;5034036;28;20029;-81
2022/04/05 02:56:58;;;;;;;10.77;5.50;;;;;;;;;;5040192;28;20029;-83
2022/04/05 02:59:23;;;;;;;7.40;4.68;;;;;;;;;;5020665;28;20036;-82
2022/04/05 03:01:49;;;;;;;9.10;5.05;;;;;;;;;;5021867;28;20507;-84
2022/04/05 03:04:15;;;;;;;7.97;4.97;;;;;;;;;;5021969;28;20087;-83
2022/04/05 03:06:41;;;;;;;10.52;5.15;;;;;;;;;;5025315;28;20050;-83
2022/04/05 03:09:07;;;;;;;7.35;5.40;;;;;;;;;;5038054;28;20391;-85
2022/04/05 03:11:32;;;;;;;6.70;4.50;;;;;;;;;;5021810;28;20026;-83
2022/04/05 03:13:58;;;;;;;7.85;4.97;;;;;;;;;;5019990;28;20029;-82
2022/04/05 03:16:24;;;;;;;8.98;5.60;;;;;;;;;;5015794;28;20060;-83
2022/04/05 03:18:50;;;;;;;7.35;5.47;;;;;;;;;;5023996;28;20022;-83
2022/04/05 03:21:15;;;;;;;8.48;5.63;;;;;;;;;;5019780;28;20399;-83
2022/04/05 03:23:41;;;;;;;7.65;5.18;;;;;;;;;;5032776;28;20029;-83
2022/04/05 03:26:07;;;;;;;10.98;5.47;;;;;;;;;;4992875;28;20030;-84
2022/04/05 03:28:32;;;;;;;8.35;5.72;;;;;;;;;;5026011;28;20027;-83
2022/04/05 03:30:58;;;;;;;8.90;5.18;;;;;;;;;;5011660;28;20032;-83
2022/04/05 03:33:23;;;;;;;8.85;5.22;;;;;;;;;;5019960;28;20032;-84
2022/04/05 03:35:49;;;;;;;7.15;4.97;;;;;;;;;;5022423;28;20010;-83
2022/04/05 03:38:15;;;;;;;10.65;5.88;;;;;;;;;;5004615;28;20036;-83
2022/04/05 03:40:40;;;;;;;8.18;4.90;;;;;;;;;;5006065;28;20025;-84
2022/04/05 03:43:07;;;;;;;7.70;5.32;;;;;;;;;;5028678;28;20051;-83
2022/04/05 03:45:33;;;;;;;9.05;5.43;;;;;;;;;;5019370;28;20018;-82
2022/04/05 03:47:59;;;;;;;9.20;5.55;;;;;;;;;;5021149;28;20053;-83
2022/04/05 03:50:24;;;;;;;8.52;5.40;;;;;;;;;;5019470;28;20037;-82
2022/04/05 03:52:50;;;;;;;8.65;5.22;;;;;;;;;;5001993;28;20030;-82
2022/04/05 03:55:15;;;;;;;6.95;4.78;;;;;;;;;;5021184;28;20025;-81
2022/04/05 03:57:40;;;;;;;11.10;5.75;;;;;;;;;;5030240;28;20078;-83
2022/04/05 04:00:07;;;;;;;10.70;5.85;;;;;;;;;;5028225;28;20442;-82
2022/04/05 04:02:35;;;;;;;7.80;5.32;;;;;;;;;;5018834;28;20045;-83
2022/04/05 04:05:00;;;;;;;9.48;5.18;;;;;;;;;;5020574;28;20026;-84
2022/04/05 04:07:26;;;;;;;7.95;5.40;;;;;;;;;;5030920;28;20041;-84
2022/04/05 04:09:51;;;;;;;8.32;5.30;;;;;;;;;;5001403;28;20030;-84
2022/04/05 04:12:17;;;;;;;9.85;5.70;;;;;;;;;;5019143;28;20472;-83
2022/04/05 04:14:42;;;;;;;7.82;5.25;;;;;;;;;;5001583;28;20049;-83
2022/04/05 04:17:07;;;;;;;9.15;5.70;;;;;;;;;;5019522;28;20068;-83
2022/04/05 04:19:34;;;;;;;8.57;5.00;;;;;;;;;;5019352;28;20030;-83
2022/04/05 04:22:00;;;;;;;10.27;5.35;;;;;;;;;;5007664;28;20057;-84
2022/04/05 04:24:26;;;;;;;8.00;5.03;;;;;;;;;;5020019;28;20033;-83
2022/04/05 04:26:51;;;;;;;6.80;5.00;;;;;;;;;;4999711;28;20033;-82
2022/04/05 04:29:16;;;;;;;9.10;5.22;;;;;;;;;;5019458;28;20037;-87
2022/04/05 04:31:42;;;;;;;8.63;5.22;;;;;;;;;;5001561;28;20089;-83
2022/04/05 04:34:08;;;;;;;10.63;5.47;;;;;;;;;;5019415;28;20018;-83
2022/04/05 04:36:33;;;;;;;9.25;5.95;;;;;;;;;;5027144;28;20037;-83
2022/04/05 04:38:59;;;;;;;5.78;4.47;;;;;;;;;;5000531;28;20045;-83
2022/04/05 04:41:24;;;;;;;9.77;5.45;;;;;;;;;;5002025;28;20057;-82
2022/04/05 04:43:50;;;;;;;9.32;5.13;;;;;;;;;;5019233;28;20030;-82
2022/04/05 04:46:16;;;;;;;7.15;5.07;;;;;;;;;;5018756;28;20025;-82
2022/04/05 04:48:41;;;;;;;7.72;4.82;;;;;;;;;;5019973;28;20029;-85
2022/04/05 04:51:08;;;;;;;8.50;5.57;;;;;;;;;;5029083;28;20557;-84
2022/04/05 04:53:33;;;;;;;9.55;5.07;;;;;;;;;;5020490;28;20033;-83
2022/04/05 04:55:59;;;;;;;9.60;5.78;;;;;;;;;;5002402;28;20033;-84
2022/04/05 04:58:24;;;;;;;10.85;5.47;;;;;;;;;;5031473;28;20041;-84
2022/04/05 05:00:49;;;;;;;11.75;5.40;;;;;;;;;;5015863;28;20090;-84
2022/04/05 05:03:18;;;;;;;8.13;5.28;;;;;;;;;;5018735;28;20034;-83
2022/04/05 05:05:44;;;;;;;10.20;5.20;;;;;;;;;;5002447;28;20030;-84
2022/04/05 05:08:10;;;;;;;7.68;5.30;;;;;;;;;;5028203;28;20163;-83
2022/04/05 05:10:35;;;;;;;8.45;5.60;;;;;;;;;;5002066;28;20048;-84
2022/04/05 05:13:01;;;;;;;9.35;4.95;;;;;;;;;;5020982;28;20026;-84
2022/04/05 05:15:27;;;;;;;7.53;5.13;;;;;;;;;;5019531;28;20373;-85
2022/04/05 05:17:55;;;;;;;11.73;5.45;;;;;;;;;;5019966;28;20156;-84
2022/04/05 05:20:24;;;;;;;12.90;5.75;;;;;;;;;;4993403;28;20026;-84
2022/04/05 05:22:49;;;;;;;9.18;5.45;;;;;;;;;;5014297;28;20040;-84
2022/04/05 05:25:15;;;;;;;9.13;5.35;;;;;;;;;;5016909;28;20026;-84
2022/04/05 05:27:41;;;;;;;7.50;5.57;;;;;;;;;;4994613;28;20560;-84
2022/04/05 05:30:09;;;;;;;7.85;4.70;;;;;;;;;;4998301;28;20469;-85
2022/04/05 05:32:49;;;;;;;8.30;5.80;;;;;;;;;;5005731;28;20029;-86
2022/04/05 05:35:15;;;;;;;9.15;6.00;;;;;;;;;;5023116;28;20034;-85
2022/04/05 05:37:41;;;;;;;10.38;4.55;;;;;;;;;;5025683;28;20033;-87
2022/04/05 05:40:07;;;;;;;7.72;5.05;;;;;;;;;;5003666;28;20037;-86
2022/04/05 05:42:55;;;;;;;9.95;5.50;;;;;;;;;;5014589;28;20125;-86
2022/04/05 05:45:25;;;;;;;8.90;5.80;;;;;;;;;;5001336;28;20036;-87
2022/04/05 05:47:51;;;;;;;8.20;5.40;;;;;;;;;;5001640;28;20105;-86
2022/04/05 05:50:17;;;;;;;7.03;4.85;;;;;;;;;;5023163;28;20111;-86
2022/04/05 05:52:44;;;;;;;9.73;5.60;;;;;;;;;;5004456;28;20068;-86
2022/04/05 05:55:11;;;;;;;9.85;5.53;;;;;;;;;;5003074;28;20292;-86
2022/04/05 05:57:40;;;;;;;10.73;5.28;;;;;;;;;;5005663;28;20557;-87
2022/04/05 06:00:11;;;;;;;11.02;5.40;;;;;;;;;;5001539;28;20025;-85
2022/04/05 06:02:38;;;;;;;12.93;6.03;;;;;;;;;;4993178;28;20030;-86
2022/04/05 06:05:04;;;;;;;7.05;5.03;;;;;;;;;;5008391;28;20022;-80
2022/04/05 06:07:29;;;;;;;8.52;5.32;;;;;;;;;;5026728;28;20017;-84
2022/04/05 06:09:55;;;;;;;8.75;5.72;;;;;;;;;;5023265;28;20029;-82
2022/04/05 06:12:21;;;;;;;9.95;5.53;;;;;;;;;;5031513;28;20026;-82
2022/04/05 06:14:46;;;;;;;8.70;5.85;;;;;;;;;;5016986;28;20080;-83
2022/04/05 06:17:11;;;;;;;8.85;5.90;;;;;;;;;;5027520;28;20038;-82
2022/04/05 06:19:38;;;;;;;8.35;5.82;;;;;;;;;;4997421;28;20038;-83
2022/04/05 06:22:04;;;;;;;8.43;5.32;;;;;;;;;;5000722;28;20176;-83
2022/04/05 06:24:30;;;;;;;9.50;5.65;;;;;;;;;;5018652;28;20038;-84
2022/04/05 06:26:56;;;;;;;10.20;5.90;;;;;;;;;;5014294;28;20036;-85
2022/04/05 06:29:21;;;;;;;12.65;5.85;;;;;;;;;;5020007;28;20096;-85
2022/04/05 06:31:46;;;;;;;14.43;6.00;;;;;;;;;;5024476;28;20392;-84
2022/04/05 06:34:12;;;;;;;10.02;6.10;;;;;;;;;;5020167;28;20022;-84
2022/04/05 06:36:37;;;;;;;10.82;6.10;;;;;;;;;;5003204;28;20053;-84
2022/04/05 06:39:03;;;;;;;9.38;6.15;;;;;;;;;;5023315;28;20041;-84
2022/04/05 06:41:28;;;;;;;11.27;6.80;;;;;;;;;;5021272;28;20049;-84
2022/04/05 06:43:54;;;;;;;11.02;5.88;;;;;;;;;;5020020;28;20575;-84
2022/04/05 06:46:19;;;;;;;9.23;6.18;;;;;;;;;;4991035;28;20487;-84
2022/04/05 06:48:44;;;;;;;9.40;6.00;;;;;;;;;;5002279;28;20037;-84
2022/04/05 06:54:33;;;;;;;8.68;5.65;;;;;;;;;;4997030;28;20036;-84
2022/04/05 06:56:58;;;;;;;10.23;5.95;;;;;;;;;;4961347;28;20030;-85
2022/04/05 06:59:24;;;;;;;10.55;5.93;;;;;;;;;;4996523;28;20533;-85
2022/04/05 07:01:49;;;;;;;12.07;5.68;;;;;;;;;;5015726;28;20032;-83
2022/04/05 07:04:14;;;;;;;12.27;5.57;;;;;;;;;;5016103;28;20667;-84
2022/04/05 07:06:40;;;;;;;9.95;6.13;;;;;;;;;;5008901;28;20477;-86
2022/04/05 07:09:07;;;;;;;11.30;6.20;;;;;;;;;;4980433;28;20050;-86
2022/04/05 07:11:33;;;;;;;10.60;5.90;;;;;;;;;;4979517;28;20037;-84
2022/04/05 07:13:58;;;;;;;9.75;5.25;;;;;;;;;;4995396;28;20022;-83
2022/04/05 07:16:24;;;;;;;7.93;5.20;;;;;;;;;;4980888;28;20040;-83
2022/04/05 07:18:49;;;;;;;12.73;5.13;;;;;;;;;;4999524;28;20438;-83
2022/04/05 07:21:15;;;;;;;9.55;5.80;;;;;;;;;;4991822;28;20036;-83
2022/04/05 07:23:41;;;;;;;8.05;5.30;;;;;;;;;;5019960;28;20156;-82
2022/04/05 07:26:07;;;;;;;8.30;5.28;;;;;;;;;;5001379;28;20069;-84
2022/04/05 07:28:33;;;;;;;12.10;5.55;;;;;;;;;;4987683;28;20443;-83
2022/04/05 07:30:58;;;;;;;16.27;5.88;;;;;;;;;;4998551;28;20038;-84
2022/04/05 07:33:24;;;;;;;9.18;5.45;;;;;;;;;;4981891;28;20452;-84
2022/04/05 07:35:50;;;;;;;8.07;5.93;;;;;;;;;;4999615;28;20089;-86
2022/04/05 07:38:15;;;;;;;7.32;5.35;;;;;;;;;;4984367;28;20029;-84
2022/04/05 07:40:49;;;;;;;14.52;5.50;;;;;;;;;;4986445;28;20019;-83
2022/04/05 07:43:20;;;;;;;7.18;4.82;;;;;;;;;;4980050;28;20026;-83
2022/04/05 07:45:48;;;;;;;8.30;5.10;;;;;;;;;;4997897;28;20034;-83
2022/04/05 07:48:15;;;;;;;6.18;4.65;;;;;;;;;;4982541;28;20069;-82
2022/04/05 07:50:41;;;;;;;8.40;5.13;;;;;;;;;;5009955;28;20109;-83
2022/04/05 07:53:06;;;;;;;8.43;5.03;;;;;;;;;;5002829;28;20153;-83
2022/04/05 07:55:35;;;;;;;10.02;6.03;;;;;;;;;;4990741;28;20022;-83
2022/04/05 07:58:03;;;;;;;7.65;4.40;;;;;;;;;;4995568;28;20555;-82
2022/04/05 08:00:29;;;;;;;7.53;5.30;;;;;;;;;;5001638;28;20034;-83
2022/04/05 08:03:27;;;;;;;10.55;5.38;;;;;;;;;;5000115;28;20073;-83
2022/04/05 08:05:53;;;;;;;7.35;4.88;;;;;;;;;;4980626;28;20034;-83
2022/04/05 08:08:19;;;;;;;7.30;4.43;;;;;;;;;;4981939;28;20030;-83
2022/04/05 08:11:22;;;;;;;11.50;5.53;;;;;;;;;;4982175;28;20026;-83
2022/04/05 08:13:50;;;;;;;6.78;4.57;;;;;;;;;;4998345;28;20054;-83
2022/04/05 08:16:16;;;;;;;6.13;4.13;;;;;;;;;;4997565;28;20473;-83
2022/04/05 08:18:41;;;;;;;6.93;4.35;;;;;;;;;;4980300;28;20033;-84
2022/04/05 08:21:06;;;;;;;6.90;4.32;;;;;;;;;;4998576;28;20488;-83
2022/04/05 08:23:32;;;;;;;7.03;5.03;;;;;;;;;;4997921;28;20052;-84
2022/04/05 08:25:58;;;;;;;6.55;4.80;;;;;;;;;;4980317;28;20023;-84
2022/04/05 08:28:24;;;;;;;6.47;4.38;;;;;;;;;;4979528;28;20113;-84
2022/04/05 08:30:49;;;;;;;6.25;4.88;;;;;;;;;;4999255;28;20058;-83
2022/04/05 08:33:15;;;;;;;7.32;5.15;;;;;;;;;;4980200;28;20053;-83
2022/04/05 08:35:40;;;;;;;9.13;4.90;;;;;;;;;;4979323;28;20057;-84
2022/04/05 08:38:06;;;;;;;7.63;4.75;;;;;;;;;;4996209;28;20499;-83
2022/04/05 08:40:32;;;;;;;7.88;5.15;;;;;;;;;;4996089;28;20030;-83
2022/04/05 08:42:58;;;;;;;7.65;4.50;;;;;;;;;;4997365;28;20360;-84
2022/04/05 08:45:26;;;;;;;6.55;4.43;;;;;;;;;;4979632;28;20019;-84
2022/04/05 08:47:57;;;;;;;8.18;4.70;;;;;;;;;;4997068;28;20030;-84
2022/04/05 08:50:29;;;;;;;6.88;4.97;;;;;;;;;;5000507;28;20113;-84
2022/04/05 08:52:56;;;;;;;7.63;4.60;;;;;;;;;;5007510;28;20415;-83
2022/04/05 08:55:22;;;;;;;7.43;4.43;;;;;;;;;;5001847;28;20026;-83
2022/04/05 08:57:47;;;;;;;8.27;4.15;;;;;;;;;;4982412;28;20033;-83
2022/04/05 09:00:15;;;;;;;6.07;4.00;;;;;;;;;;4978743;28;20030;-82
2022/04/05 09:03:02;;;;;;;6.80;4.00;;;;;;;;;;4993881;28;20097;-84
2022/04/05 09:05:33;;;;;;;8.10;3.90;;;;;;;;;;4985098;28;20564;-83
2022/04/05 09:08:23;;;;;;;4.50;3.57;;;;;;;;;;4984214;28;20193;-83
2022/04/05 09:10:53;;;;;;;6.18;4.13;;;;;;;;;;4982843;28;20033;-83
2022/04/05 09:13:27;;;;;;;5.93;3.88;;;;;;;;;;5007095;28;20506;-84
2022/04/05 09:15:56;;;;;;;6.68;3.70;;;;;;;;;;5016006;28;20028;-84
2022/04/05 09:18:44;;;;;;;7.65;4.00;;;;;;;;;;4998887;28;20056;-84
2022/04/05 09:21:13;;;;;;;9.88;5.35;;;;;;;;;;5012660;28;20495;-84
2022/04/05 09:23:43;;;;;;;9.85;6.60;;;;;;;;;;4996164;28;20567;-84
2022/04/05 09:26:14;;;;;;;18.15;10.95;;;;;;;;;;5005805;28;20147;-83
2022/04/05 09:28:42;;;;;;;16.10;9.27;;;;;;;;;;5015676;28;20479;-83
2022/04/05 09:31:10;;;;;;;9.23;5.70;;;;;;;;;;4997522;28;20030;-82
2022/04/05 09:33:38;;;;;;;4.28;3.33;;;;;;;;;;4999736;28;20120;-84
2022/04/05 09:36:04;;;;;;;6.68;3.90;;;;;;;;;;4999863;28;20025;-82
2022/04/05 09:38:29;;;;;;;8.65;3.40;;;;;;;;;;5009876;28;20409;-83
2022/04/05 09:41:09;;;;;;;7.32;4.18;;;;;;;;;;4981078;28;20034;-83
2022/04/05 09:43:34;;;;;;;6.20;3.90;;;;;;;;;;4981659;28;20053;-84
2022/04/05 09:46:04;;;;;;;5.40;3.50;;;;;;;;;;4981262;28;20425;-83
2022/04/05 09:48:35;;;;;;;5.03;3.33;;;;;;;;;;4980477;28;20030;-82
2022/04/05 09:51:16;;;;;;;6.78;3.58;;;;;;;;;;5007891;28;20029;-83
2022/04/05 09:53:54;;;;;;;6.15;3.50;;;;;;;;;;5003160;28;20030;-83
2022/04/05 09:56:26;;;;;;;5.10;3.60;;;;;;;;;;4990583;28;20020;-83
2022/04/05 09:58:52;;;;;;;7.97;3.40;;;;;;;;;;5006820;28;20038;-82
2022/04/05 10:01:19;;;;;;;8.77;3.60;;;;;;;;;;5000810;28;20443;-83
2022/04/05 10:03:59;;;;;;;8.50;4.05;;;;;;;;;;5001500;28;20048;-83
2022/04/05 10:06:25;;;;;;;8.23;3.85;;;;;;;;;;5002491;28;20025;-83
2022/04/05 10:08:50;;;;;;;6.10;3.22;;;;;;;;;;5002360;28;20503;-84
2022/04/05 10:11:16;;;;;;;6.10;3.40;;;;;;;;;;4995471;28;20022;-85
2022/04/05 10:13:48;;;;;;;6.97;3.42;;;;;;;;;;5000077;28;20105;-82
2022/04/05 10:16:14;;;;;;;5.38;2.97;;;;;;;;;;4999264;28;20086;-83
2022/04/05 10:18:41;;;;;;;5.47;3.58;;;;;;;;;;4996839;28;20027;-83
2022/04/05 10:21:06;;;;;;;6.05;3.58;;;;;;;;;;5004420;28;20369;-83
2022/04/05 10:23:32;;;;;;;5.28;2.97;;;;;;;;;;5004173;28;20022;-82
2022/04/05 10:25:58;;;;;;;5.13;3.35;;;;;;;;;;5005393;28;20575;-83
2022/04/05 10:28:38;;;;;;;4.30;3.05;;;;;;;;;;5003339;28;20033;-83
2022/04/05 10:31:41;;;;;;;7.50;3.25;;;;;;;;;;4977065;28;20061;-83
2022/04/05 10:34:14;;;;;;;;;;;;;;;;;;5001952;28;20480;-84
2022/04/05 10:36:51;;;;;;;3.50;2.95;;;;;;;;;;4989700;28;20340;-83
2022/04/05 10:39:19;;;;;;;4.18;3.00;;;;;;;;;;4979214;28;20035;-82
2022/04/05 10:42:12;;;;;;;4.03;2.90;;;;;;;;;;5000688;28;20435;-83
2022/04/05 10:45:38;;;;;;;5.05;2.97;;;;;;;;;;4989491;28;20027;-82
2022/04/05 10:48:16;;;;;;;4.22;3.13;;;;;;;;;;4975173;28;20037;-82
2022/04/05 10:50:43;;;;;;;5.20;3.15;;;;;;;;;;4976925;28;20404;-82
2022/04/05 10:53:20;;;;;;;5.18;3.17;;;;;;;;;;4979886;28;20027;-83
2022/04/05 10:56:04;;;;;;;4.55;2.85;;;;;;;;;;4981690;28;20026;-85
2022/04/05 10:59:01;;;;;;;4.82;2.70;;;;;;;;;;5005149;28;20026;-85
2022/04/05 11:01:44;;;;;;;4.43;3.35;;;;;;;;;;4998915;28;20034;-87
2022/04/05 11:04:16;;;;;;;5.03;3.50;;;;;;;;;;5021438;28;20060;-84
2022/04/05 11:07:06;;;;;;;4.22;3.10;;;;;;;;;;5023502;28;20033;-85
2022/04/05 11:09:44;;;;;;;4.47;3.28;;;;;;;;;;5021977;28;20053;-85
2022/04/05 11:13:03;;;;;;;3.55;3.00;;;;;;;;;;5004399;28;20062;-87
2022/04/05 11:15:56;;;;;;;3.85;3.15;;;;;;;;;;4962262;28;20053;-87
2022/04/05 11:18:24;;;;;;;5.28;3.15;;;;;;;;;;5019279;28;20109;-88
2022/04/05 11:21:32;;;;;;;4.78;3.58;;;;;;;;;;4993099;28;20388;-85
2022/04/05 11:24:00;;;;;;;5.22;3.17;;;;;;;;;;4982048;28;20034;-87
2022/04/05 11:26:35;;;;;;;5.22;3.03;;;;;;;;;;4999086;28;20154;-87
2022/04/05 11:29:18;;;;;;;5.15;3.38;;;;;;;;;;5000327;28;20023;-86
2022/04/05 11:32:07;;;;;;;4.38;2.80;;;;;;;;;;4995679;28;20504;-87
2022/04/05 11:34:57;;;;;;;5.38;3.00;;;;;;;;;;5012957;28;20050;-86
2022/04/05 11:37:33;;;;;;;5.20;3.22;;;;;;;;;;4993640;28;20054;-85
2022/04/05 11:40:00;;;;;;;3.53;2.90;;;;;;;;;;5001584;28;20587;-85
2022/04/05 11:42:37;;;;;;;6.82;3.60;;;;;;;;;;4988087;28;20034;-86
2022/04/05 11:45:06;;;;;;;5.07;3.28;;;;;;;;;;4974919;28;20027;-85
2022/04/05 11:51:28;;;;;;;3.47;3.03;;;;;;;;;;4996064;28;20089;-85
2022/04/05 11:57:20;;;;;;;4.28;2.90;;;;;;;;;;4887784;29;20130;-87
2022/04/05 12:00:44;;;;;;;3.97;3.15;;;;;;;;;;5017756;28;20139;-86
2022/04/05 12:03:10;;;;;;;6.78;3.58;;;;;;;;;;4990695;28;20018;-86
2022/04/05 12:05:43;;;;;;;8.60;3.60;;;;;;;;;;5001266;28;20034;-88
2022/04/05 12:08:10;;;;;;;5.07;3.00;;;;;;;;;;5009952;28;20026;-87
2022/04/05 12:11:31;;;;;;;6.55;3.30;;;;;;;;;;5001546;28;20026;-88
2022/04/05 12:14:05;;;;;;;5.57;3.00;;;;;;;;;;4930738;29;20032;-86
2022/04/05 12:16:49;;;;;;;4.80;3.00;;;;;;;;;;4972879;28;20046;-83
2022/04/05 12:19:45;;;;;;;4.85;3.33;;;;;;;;;;4987645;28;20014;-83
2022/04/05 12:22:14;;;;;;;7.55;3.05;;;;;;;;;;4988618;28;20034;-83
2022/04/05 12:24:50;;;;;;;2.65;2.45;;;;;;;;;;5007141;28;20033;-85
2022/04/05 12:27:18;;;;;;;4.53;3.25;;;;;;;;;;5003144;28;20025;-86
2022/04/05 12:29:44;;;;;;;4.80;3.05;;;;;;;;;;5001606;28;20578;-85
2022/04/05 12:35:55;;;;;;;4.85;2.95;;;;;;;;;;4904710;29;20064;-85
2022/04/05 12:38:21;;;;;;;6.13;3.25;;;;;;;;;;4979705;28;20038;-85
2022/04/05 12:40:47;;;;;;;3.45;2.80;;;;;;;;;;4979473;28;20037;-85
2022/04/05 12:43:13;;;;;;;3.40;2.50;;;;;;;;;;5002151;28;20026;-84
2022/04/05 12:45:39;;;;;;;3.17;2.10;;;;;;;;;;5001816;28;20157;-84
2022/04/05 12:48:13;;;;;;;8.63;2.78;;;;;;;;;;5001484;28;20126;-83
2022/04/05 12:50:43;;;;;;;2.28;2.08;;;;;;;;;;4985343;28;20026;-83
2022/04/05 12:53:09;;;;;;;2.15;1.95;;;;;;;;;;4987349;28;20026;-85
2022/04/05 12:55:34;;;;;;;5.07;2.40;;;;;;;;;;4989448;28;20029;-84
2022/04/05 12:58:00;;;;;;;3.58;1.88;;;;;;;;;;4991698;28;20629;-84
2022/04/05 13:00:28;;;;;;;4.50;2.60;;;;;;;;;;5021198;28;20036;-83
2022/04/05 13:03:22;;;;;;;5.03;2.80;;;;;;;;;;5015088;28;20041;-83
2022/04/05 13:08:40;;;;;;;5.38;2.75;;;;;;;;;;4997912;28;20121;-81
2022/04/05 13:11:29;;;;;;;3.78;2.33;;;;;;;;;;4981390;28;20075;-82
2022/04/05 13:14:12;;;;;;;3.65;2.72;;;;;;;;;;4980615;28;20027;-83
2022/04/05 13:16:38;;;;;;;6.30;3.10;;;;;;;;;;4997782;28;20037;-83
2022/04/05 13:19:13;;;;;;;4.90;2.50;;;;;;;;;;4997739;28;20023;-83
2022/04/05 13:21:44;;;;;;;3.88;2.42;;;;;;;;;;5005010;28;20029;-84
2022/04/05 13:24:10;;;;;;;7.68;2.38;;;;;;;;;;4999582;28;20022;-84
2022/04/05 13:26:49;;;;;;;6.95;3.13;;;;;;;;;;5002111;28;20523;-83
2022/04/05 13:29:17;;;;;;;6.07;2.20;;;;;;;;;;4993748;28;20039;-84
2022/04/05 13:32:06;;;;;;;3.80;2.65;;;;;;;;;;5000849;28;20109;-84
2022/04/05 13:34:40;;;;;;;4.07;2.38;;;;;;;;;;4976979;28;20304;-84
2022/04/05 13:37:11;;;;;;;5.72;2.25;;;;;;;;;;4980179;28;20034;-83
2022/04/05 13:39:36;;;;;;;3.00;2.20;;;;;;;;;;4996975;28;20053;-83
2022/04/05 13:42:21;;;;;;;3.38;2.30;;;;;;;;;;4999136;28;20022;-83
2022/04/05 13:44:50;;;;;;;3.00;2.10;;;;;;;;;;4979898;28;20035;-83
2022/04/05 13:47:16;;;;;;;5.50;3.08;;;;;;;;;;4986621;28;20488;-83
2022/04/05 13:49:41;;;;;;;4.60;2.10;;;;;;;;;;4989333;28;20485;-83
2022/04/05 13:52:18;;;;;;;6.78;2.50;;;;;;;;;;4995432;28;20022;-84
2022/04/05 13:54:47;;;;;;;4.15;2.33;;;;;;;;;;4977731;28;20089;-85
2022/04/05 13:57:16;;;;;;;3.65;2.42;;;;;;;;;;4981435;28;20030;-83
2022/04/05 13:59:42;;;;;;;3.15;2.17;;;;;;;;;;4989351;28;20124;-83
2022/04/05 14:02:07;;;;;;;4.18;2.40;;;;;;;;;;4988321;28;20415;-83
2022/04/05 14:04:34;;;;;;;6.85;2.80;;;;;;;;;;4966101;28;20549;-83
2022/04/05 14:06:59;;;;;;;4.80;2.83;;;;;;;;;;4968460;28;20019;-83
2022/04/05 14:09:25;;;;;;;4.18;2.90;;;;;;;;;;4990844;28;20030;-83
2022/04/05 14:11:50;;;;;;;2.33;2.13;;;;;;;;;;4971078;28;20022;-83
2022/04/05 14:14:15;;;;;;;3.22;2.17;;;;;;;;;;4984572;28;20065;-82
2022/04/05 14:16:41;;;;;;;1.95;1.77;;;;;;;;;;4987552;28;20022;-82
2022/04/05 14:19:07;;;;;;;2.78;2.13;;;;;;;;;;4986463;28;20471;-82
2022/04/05 14:21:33;;;;;;;1.88;1.75;;;;;;;;;;5001032;28;20021;-81
2022/04/05 14:24:00;;;;;;;3.53;2.10;;;;;;;;;;4966414;28;20027;-82
2022/04/05 14:26:25;;;;;;;2.33;1.88;;;;;;;;;;4993476;28;20503;-80
2022/04/05 14:28:59;;;;;;;2.13;1.88;;;;;;;;;;4995291;28;20026;-82
2022/04/05 14:31:25;;;;;;;3.10;2.00;;;;;;;;;;4977357;28;20037;-81
2022/04/05 14:33:50;;;;;;;2.05;1.50;;;;;;;;;;4972021;28;20041;-82
2022/04/05 14:36:21;;;;;;;2.53;2.00;;;;;;;;;;4993678;28;20105;-82
2022/04/05 14:38:47;;;;;;;7.03;1.85;;;;;;;;;;4977904;28;20033;-82
2022/04/05 14:41:13;;;;;;;2.10;1.73;;;;;;;;;;4996210;28;20031;-81
2022/04/05 14:43:39;;;;;;;1.52;1.40;;;;;;;;;;4987258;28;20027;-81
2022/04/05 14:46:04;;;;;;;1.85;1.65;;;;;;;;;;4995616;28;20026;-82
2022/04/05 14:48:31;;;;;;;1.95;1.70;;;;;;;;;;4990517;28;20501;-82
2022/04/05 14:50:56;;;;;;;3.10;1.40;;;;;;;;;;5004111;28;20129;-81
2022/04/05 14:53:24;;;;;;;1.35;1.20;;;;;;;;;;4980935;28;20054;-82
2022/04/05 14:55:49;;;;;;;1.60;1.50;;;;;;;;;;4988555;28;20027;-80
2022/04/05 14:58:15;;;;;;;1.20;1.10;;;;;;;;;;5002781;28;20428;-80
2022/04/05 15:00:41;;;;;;;1.38;1.27;;;;;;;;;;4961608;28;20039;-83
2022/04/05 15:03:08;;;;;;;2.20;1.52;;;;;;;;;;4968540;28;20571;-81
2022/04/05 15:05:34;;;;;;;2.17;1.25;;;;;;;;;;4994597;28;20027;-81
2022/04/05 15:07:59;;;;;;;4.43;1.30;;;;;;;;;;4986941;28;20076;-81
2022/04/05 15:10:25;;;;;;;1.42;1.20;;;;;;;;;;4973273;28;20408;-84